sensor_id;sensor_type;location;lat;lon;timestamp;P1;durP1;ratioP1;P2;durP2;ratioP2
66597;SDS011;57424;53.128;6.406;2023-04-03T00:02:06;5.18;;;3.50;;
66597;SDS011;57424;53.128;6.406;2023-04-03T00:04:32;5.72;;;4.13;;
66597;SDS011;57424;53.128;6.406;2023-04-03T00:06:57;7.03;;;4.15;;
66597;SDS011;57424;53.128;6.406;2023-04-03T00:09:23;4.95;;;3.63;;
66597;SDS011;57424;53.128;6.406;2023-04-03T00:11:49;4.88;;;3.50;;
66597;SDS011;57424;53.128;6.406;2023-04-03T00:14:15;5.55;;;3.55;;
66597;SDS011;57424;53.128;6.406;2023-04-03T00:16:40;4.28;;;2.92;;
66597;SDS011;57424;53.128;6.406;2023-04-03T00:19:06;4.80;;;3.65;;
66597;SDS011;57424;53.128;6.406;2023-04-03T00:21:32;6.13;;;3.70;;
66597;SDS011;57424;53.128;6.406;2023-04-03T00:23:57;5.00;;;3.30;;
66597;SDS011;57424;53.128;6.406;2023-04-03T00:26:23;8.20;;;3.47;;
66597;SDS011;57424;53.128;6.406;2023-04-03T00:28:49;7.70;;;3.63;;
66597;SDS011;57424;53.128;6.406;2023-04-03T00:31:15;4.22;;;2.97;;
66597;SDS011;57424;53.128;6.406;2023-04-03T00:33:41;4.82;;;2.95;;
66597;SDS011;57424;53.128;6.406;2023-04-03T00:36:07;5.15;;;3.50;;
66597;SDS011;57424;53.128;6.406;2023-04-03T00:38:34;4.07;;;3.03;;
66597;SDS011;57424;53.128;6.406;2023-04-03T00:41:00;4.38;;;3.20;;
66597;SDS011;57424;53.128;6.406;2023-04-03T00:43:26;5.10;;;3.10;;
66597;SDS011;57424;53.128;6.406;2023-04-03T00:45:52;4.85;;;2.97;;
66597;SDS011;57424;53.128;6.406;2023-04-03T00:48:40;4.40;;;2.67;;
66597;SDS011;57424;53.128;6.406;2023-04-03T00:51:11;3.90;;;2.90;;
66597;SDS011;57424;53.128;6.406;2023-04-03T00:53:50;5.13;;;2.88;;
66597;SDS011;57424;53.128;6.406;2023-04-03T00:56:21;4.22;;;2.78;;
66597;SDS011;57424;53.128;6.406;2023-04-03T00:58:57;4.82;;;2.95;;
66597;SDS011;57424;53.128;6.406;2023-04-03T01:01:27;4.25;;;2.80;;
66597;SDS011;57424;53.128;6.406;2023-04-03T01:03:53;3.67;;;2.70;;
66597;SDS011;57424;53.128;6.406;2023-04-03T01:06:21;4.53;;;2.90;;
66597;SDS011;57424;53.128;6.406;2023-04-03T01:08:51;4.05;;;2.53;;
66597;SDS011;57424;53.128;6.406;2023-04-03T01:11:18;3.65;;;2.60;;
66597;SDS011;57424;53.128;6.406;2023-04-03T01:13:43;3.55;;;2.53;;
66597;SDS011;57424;53.128;6.406;2023-04-03T01:16:09;4.05;;;2.75;;
66597;SDS011;57424;53.128;6.406;2023-04-03T01:18:36;3.83;;;2.40;;
66597;SDS011;57424;53.128;6.406;2023-04-03T01:23:50;3.58;;;2.47;;
66597;SDS011;57424;53.128;6.406;2023-04-03T01:26:30;3.53;;;2.25;;
66597;SDS011;57424;53.128;6.406;2023-04-03T01:28:58;3.17;;;2.40;;
66597;SDS011;57424;53.128;6.406;2023-04-03T01:31:31;3.38;;;2.33;;
66597;SDS011;57424;53.128;6.406;2023-04-03T01:34:18;4.53;;;2.40;;
66597;SDS011;57424;53.128;6.406;2023-04-03T01:36:45;4.35;;;2.42;;
66597;SDS011;57424;53.128;6.406;2023-04-03T01:39:11;4.32;;;2.50;;
66597;SDS011;57424;53.128;6.406;2023-04-03T01:41:36;4.35;;;2.38;;
66597;SDS011;57424;53.128;6.406;2023-04-03T01:44:02;3.47;;;2.30;;
66597;SDS011;57424;53.128;6.406;2023-04-03T01:46:29;3.95;;;2.15;;
66597;SDS011;57424;53.128;6.406;2023-04-03T01:48:55;3.80;;;2.50;;
66597;SDS011;57424;53.128;6.406;2023-04-03T01:51:20;3.60;;;2.17;;
66597;SDS011;57424;53.128;6.406;2023-04-03T01:53:46;3.15;;;2.30;;
66597;SDS011;57424;53.128;6.406;2023-04-03T01:56:11;4.20;;;2.50;;
66597;SDS011;57424;53.128;6.406;2023-04-03T01:58:37;3.80;;;2.25;;
66597;SDS011;57424;53.128;6.406;2023-04-03T02:01:03;4.38;;;2.33;;
66597;SDS011;57424;53.128;6.406;2023-04-03T02:03:29;3.28;;;2.10;;
66597;SDS011;57424;53.128;6.406;2023-04-03T02:05:55;4.07;;;2.38;;
66597;SDS011;57424;53.128;6.406;2023-04-03T02:08:21;3.60;;;2.22;;
66597;SDS011;57424;53.128;6.406;2023-04-03T02:10:47;3.22;;;2.00;;
66597;SDS011;57424;53.128;6.406;2023-04-03T02:13:13;3.38;;;2.00;;
66597;SDS011;57424;53.128;6.406;2023-04-03T02:15:39;3.70;;;2.30;;
66597;SDS011;57424;53.128;6.406;2023-04-03T02:18:05;2.63;;;1.83;;
66597;SDS011;57424;53.128;6.406;2023-04-03T02:20:32;2.97;;;1.98;;
66597;SDS011;57424;53.128;6.406;2023-04-03T02:22:58;4.03;;;2.10;;
66597;SDS011;57424;53.128;6.406;2023-04-03T02:25:23;3.10;;;1.95;;
66597;SDS011;57424;53.128;6.406;2023-04-03T02:27:49;3.35;;;2.10;;
66597;SDS011;57424;53.128;6.406;2023-04-03T02:30:15;2.83;;;1.90;;
66597;SDS011;57424;53.128;6.406;2023-04-03T02:32:41;3.28;;;2.00;;
66597;SDS011;57424;53.128;6.406;2023-04-03T02:35:08;3.60;;;2.30;;
66597;SDS011;57424;53.128;6.406;2023-04-03T02:37:34;3.75;;;2.10;;
66597;SDS011;57424;53.128;6.406;2023-04-03T02:40:00;4.47;;;2.25;;
66597;SDS011;57424;53.128;6.406;2023-04-03T02:42:25;2.75;;;1.95;;
66597;SDS011;57424;53.128;6.406;2023-04-03T02:44:51;2.60;;;2.03;;
66597;SDS011;57424;53.128;6.406;2023-04-03T02:47:17;2.65;;;1.90;;
66597;SDS011;57424;53.128;6.406;2023-04-03T02:49:42;3.22;;;2.13;;
66597;SDS011;57424;53.128;6.406;2023-04-03T02:52:11;2.40;;;1.52;;
66597;SDS011;57424;53.128;6.406;2023-04-03T02:54:37;4.68;;;2.05;;
66597;SDS011;57424;53.128;6.406;2023-04-03T02:57:03;4.55;;;2.15;;
66597;SDS011;57424;53.128;6.406;2023-04-03T02:59:29;3.00;;;2.00;;
66597;SDS011;57424;53.128;6.406;2023-04-03T03:01:55;2.60;;;1.67;;
66597;SDS011;57424;53.128;6.406;2023-04-03T03:04:21;3.30;;;1.77;;
66597;SDS011;57424;53.128;6.406;2023-04-03T03:06:46;2.10;;;1.55;;
66597;SDS011;57424;53.128;6.406;2023-04-03T03:09:12;3.47;;;1.90;;
66597;SDS011;57424;53.128;6.406;2023-04-03T03:11:38;4.43;;;2.10;;
66597;SDS011;57424;53.128;6.406;2023-04-03T03:14:04;2.92;;;1.80;;
66597;SDS011;57424;53.128;6.406;2023-04-03T03:16:30;2.05;;;1.60;;
66597;SDS011;57424;53.128;6.406;2023-04-03T03:18:55;3.42;;;2.00;;
66597;SDS011;57424;53.128;6.406;2023-04-03T03:21:21;2.35;;;1.52;;
66597;SDS011;57424;53.128;6.406;2023-04-03T03:23:47;2.55;;;1.73;;
66597;SDS011;57424;53.128;6.406;2023-04-03T03:26:12;2.13;;;1.60;;
66597;SDS011;57424;53.128;6.406;2023-04-03T03:28:39;2.40;;;1.65;;
66597;SDS011;57424;53.128;6.406;2023-04-03T03:31:05;3.65;;;1.80;;
66597;SDS011;57424;53.128;6.406;2023-04-03T03:33:32;3.08;;;1.73;;
66597;SDS011;57424;53.128;6.406;2023-04-03T03:35:57;2.20;;;1.60;;
66597;SDS011;57424;53.128;6.406;2023-04-03T03:38:23;3.80;;;2.05;;
66597;SDS011;57424;53.128;6.406;2023-04-03T03:40:49;3.50;;;1.88;;
66597;SDS011;57424;53.128;6.406;2023-04-03T03:43:16;2.28;;;1.63;;
66597;SDS011;57424;53.128;6.406;2023-04-03T03:45:42;2.97;;;1.60;;
66597;SDS011;57424;53.128;6.406;2023-04-03T03:48:08;2.78;;;1.50;;
66597;SDS011;57424;53.128;6.406;2023-04-03T03:50:33;2.05;;;1.50;;
66597;SDS011;57424;53.128;6.406;2023-04-03T03:52:59;1.63;;;1.30;;
66597;SDS011;57424;53.128;6.406;2023-04-03T03:55:25;2.80;;;1.55;;
66597;SDS011;57424;53.128;6.406;2023-04-03T03:57:50;2.63;;;1.50;;
66597;SDS011;57424;53.128;6.406;2023-04-03T04:00:16;2.75;;;1.50;;
66597;SDS011;57424;53.128;6.406;2023-04-03T04:02:42;2.92;;;1.60;;
66597;SDS011;57424;53.128;6.406;2023-04-03T04:05:08;2.03;;;1.50;;
66597;SDS011;57424;53.128;6.406;2023-04-03T04:07:34;2.38;;;1.50;;
66597;SDS011;57424;53.128;6.406;2023-04-03T04:10:00;2.17;;;1.42;;
66597;SDS011;57424;53.128;6.406;2023-04-03T04:12:26;2.42;;;1.33;;
66597;SDS011;57424;53.128;6.406;2023-04-03T04:14:51;1.80;;;1.30;;
66597;SDS011;57424;53.128;6.406;2023-04-03T04:17:17;2.70;;;1.45;;
66597;SDS011;57424;53.128;6.406;2023-04-03T04:19:42;2.15;;;1.63;;
66597;SDS011;57424;53.128;6.406;2023-04-03T04:22:08;2.50;;;1.60;;
66597;SDS011;57424;53.128;6.406;2023-04-03T04:24:34;4.03;;;1.67;;
66597;SDS011;57424;53.128;6.406;2023-04-03T04:26:59;3.47;;;1.58;;
66597;SDS011;57424;53.128;6.406;2023-04-03T04:29:25;3.83;;;1.35;;
66597;SDS011;57424;53.128;6.406;2023-04-03T04:31:51;2.03;;;1.48;;
66597;SDS011;57424;53.128;6.406;2023-04-03T04:34:16;2.05;;;1.40;;
66597;SDS011;57424;53.128;6.406;2023-04-03T04:36:42;2.28;;;1.58;;
66597;SDS011;57424;53.128;6.406;2023-04-03T04:39:07;3.55;;;1.27;;
66597;SDS011;57424;53.128;6.406;2023-04-03T04:41:33;2.42;;;1.27;;
66597;SDS011;57424;53.128;6.406;2023-04-03T04:43:59;2.33;;;1.35;;
66597;SDS011;57424;53.128;6.406;2023-04-03T04:46:25;2.67;;;1.33;;
66597;SDS011;57424;53.128;6.406;2023-04-03T04:48:51;3.42;;;1.27;;
66597;SDS011;57424;53.128;6.406;2023-04-03T04:51:17;3.92;;;1.20;;
66597;SDS011;57424;53.128;6.406;2023-04-03T04:53:42;3.85;;;1.35;;
66597;SDS011;57424;53.128;6.406;2023-04-03T04:56:08;4.78;;;1.65;;
66597;SDS011;57424;53.128;6.406;2023-04-03T04:58:34;1.50;;;1.13;;
66597;SDS011;57424;53.128;6.406;2023-04-03T05:01:00;2.30;;;1.35;;
66597;SDS011;57424;53.128;6.406;2023-04-03T05:03:30;2.95;;;1.60;;
66597;SDS011;57424;53.128;6.406;2023-04-03T05:05:56;3.15;;;1.55;;
66597;SDS011;57424;53.128;6.406;2023-04-03T05:08:22;3.53;;;1.35;;
66597;SDS011;57424;53.128;6.406;2023-04-03T05:10:47;3.03;;;1.55;;
66597;SDS011;57424;53.128;6.406;2023-04-03T05:13:14;4.72;;;1.40;;
66597;SDS011;57424;53.128;6.406;2023-04-03T05:15:39;5.05;;;1.50;;
66597;SDS011;57424;53.128;6.406;2023-04-03T05:18:05;1.98;;;1.40;;
66597;SDS011;57424;53.128;6.406;2023-04-03T05:20:31;3.85;;;1.58;;
66597;SDS011;57424;53.128;6.406;2023-04-03T05:22:57;3.10;;;1.58;;
66597;SDS011;57424;53.128;6.406;2023-04-03T05:25:23;2.97;;;1.48;;
66597;SDS011;57424;53.128;6.406;2023-04-03T05:27:49;11.48;;;1.60;;
66597;SDS011;57424;53.128;6.406;2023-04-03T05:30:15;3.95;;;1.58;;
66597;SDS011;57424;53.128;6.406;2023-04-03T05:32:41;2.60;;;1.52;;
66597;SDS011;57424;53.128;6.406;2023-04-03T05:35:08;1.45;;;1.17;;
66597;SDS011;57424;53.128;6.406;2023-04-03T05:37:34;2.90;;;1.30;;
66597;SDS011;57424;53.128;6.406;2023-04-03T05:40:00;3.40;;;1.60;;
66597;SDS011;57424;53.128;6.406;2023-04-03T05:42:26;4.57;;;1.27;;
66597;SDS011;57424;53.128;6.406;2023-04-03T05:44:51;3.22;;;1.50;;
66597;SDS011;57424;53.128;6.406;2023-04-03T05:47:17;3.58;;;1.52;;
66597;SDS011;57424;53.128;6.406;2023-04-03T05:49:43;3.92;;;1.50;;
66597;SDS011;57424;53.128;6.406;2023-04-03T05:52:26;4.10;;;1.40;;
66597;SDS011;57424;53.128;6.406;2023-04-03T05:54:57;2.33;;;1.40;;
66597;SDS011;57424;53.128;6.406;2023-04-03T05:57:23;2.63;;;1.30;;
66597;SDS011;57424;53.128;6.406;2023-04-03T05:59:49;2.30;;;1.30;;
66597;SDS011;57424;53.128;6.406;2023-04-03T06:02:16;2.83;;;1.60;;
66597;SDS011;57424;53.128;6.406;2023-04-03T06:04:43;2.17;;;1.38;;
66597;SDS011;57424;53.128;6.406;2023-04-03T06:07:12;2.35;;;1.20;;
66597;SDS011;57424;53.128;6.406;2023-04-03T06:09:40;2.83;;;1.30;;
66597;SDS011;57424;53.128;6.406;2023-04-03T06:12:07;1.70;;;1.38;;
66597;SDS011;57424;53.128;6.406;2023-04-03T06:14:33;6.57;;;1.55;;
66597;SDS011;57424;53.128;6.406;2023-04-03T06:16:59;2.30;;;1.50;;
66597;SDS011;57424;53.128;6.406;2023-04-03T06:19:25;2.78;;;1.42;;
66597;SDS011;57424;53.128;6.406;2023-04-03T06:21:50;3.15;;;1.45;;
66597;SDS011;57424;53.128;6.406;2023-04-03T06:24:16;1.92;;;1.20;;
66597;SDS011;57424;53.128;6.406;2023-04-03T06:26:43;3.30;;;1.40;;
66597;SDS011;57424;53.128;6.406;2023-04-03T06:29:09;2.28;;;1.35;;
66597;SDS011;57424;53.128;6.406;2023-04-03T06:31:34;2.97;;;1.40;;
66597;SDS011;57424;53.128;6.406;2023-04-03T06:34:01;2.97;;;1.33;;
66597;SDS011;57424;53.128;6.406;2023-04-03T06:36:28;1.83;;;1.40;;
66597;SDS011;57424;53.128;6.406;2023-04-03T06:38:54;3.40;;;1.48;;
66597;SDS011;57424;53.128;6.406;2023-04-03T06:41:20;1.80;;;1.20;;
66597;SDS011;57424;53.128;6.406;2023-04-03T06:43:46;2.58;;;1.42;;
66597;SDS011;57424;53.128;6.406;2023-04-03T06:46:19;2.08;;;1.20;;
66597;SDS011;57424;53.128;6.406;2023-04-03T06:48:46;2.33;;;1.40;;
66597;SDS011;57424;53.128;6.406;2023-04-03T06:51:17;2.10;;;1.08;;
66597;SDS011;57424;53.128;6.406;2023-04-03T06:53:44;4.32;;;1.23;;
66597;SDS011;57424;53.128;6.406;2023-04-03T06:56:11;1.77;;;1.30;;
66597;SDS011;57424;53.128;6.406;2023-04-03T06:58:36;4.90;;;1.65;;
66597;SDS011;57424;53.128;6.406;2023-04-03T07:01:02;1.92;;;1.38;;
66597;SDS011;57424;53.128;6.406;2023-04-03T07:03:28;2.63;;;1.30;;
66597;SDS011;57424;53.128;6.406;2023-04-03T07:05:53;5.22;;;1.38;;
66597;SDS011;57424;53.128;6.406;2023-04-03T07:08:19;2.88;;;1.23;;
66597;SDS011;57424;53.128;6.406;2023-04-03T07:10:45;2.70;;;1.40;;
66597;SDS011;57424;53.128;6.406;2023-04-03T07:13:10;1.92;;;1.40;;
66597;SDS011;57424;53.128;6.406;2023-04-03T07:15:36;3.33;;;1.33;;
66597;SDS011;57424;53.128;6.406;2023-04-03T07:18:02;3.83;;;1.38;;
66597;SDS011;57424;53.128;6.406;2023-04-03T07:20:28;3.38;;;1.50;;
66597;SDS011;57424;53.128;6.406;2023-04-03T07:22:54;5.18;;;1.50;;
66597;SDS011;57424;53.128;6.406;2023-04-03T07:25:19;3.88;;;1.33;;
66597;SDS011;57424;53.128;6.406;2023-04-03T07:27:45;2.72;;;1.40;;
66597;SDS011;57424;53.128;6.406;2023-04-03T07:30:11;3.17;;;1.35;;
66597;SDS011;57424;53.128;6.406;2023-04-03T07:35:04;3.33;;;1.20;;
66597;SDS011;57424;53.128;6.406;2023-04-03T07:37:30;2.50;;;1.30;;
66597;SDS011;57424;53.128;6.406;2023-04-03T07:39:57;2.40;;;1.15;;
66597;SDS011;57424;53.128;6.406;2023-04-03T07:42:24;2.63;;;1.25;;
66597;SDS011;57424;53.128;6.406;2023-04-03T07:44:52;3.90;;;1.48;;
66597;SDS011;57424;53.128;6.406;2023-04-03T07:47:18;2.38;;;1.20;;
66597;SDS011;57424;53.128;6.406;2023-04-03T07:49:45;2.80;;;1.42;;
66597;SDS011;57424;53.128;6.406;2023-04-03T07:52:11;2.72;;;1.40;;
66597;SDS011;57424;53.128;6.406;2023-04-03T07:54:37;1.95;;;1.20;;
66597;SDS011;57424;53.128;6.406;2023-04-03T07:57:03;2.97;;;1.10;;
66597;SDS011;57424;53.128;6.406;2023-04-03T07:59:28;1.58;;;1.02;;
66597;SDS011;57424;53.128;6.406;2023-04-03T08:01:54;2.35;;;1.30;;
66597;SDS011;57424;53.128;6.406;2023-04-03T08:04:20;2.80;;;1.35;;
66597;SDS011;57424;53.128;6.406;2023-04-03T08:06:46;3.10;;;1.30;;
66597;SDS011;57424;53.128;6.406;2023-04-03T08:09:11;1.77;;;1.45;;
66597;SDS011;57424;53.128;6.406;2023-04-03T08:11:39;2.65;;;1.45;;
66597;SDS011;57424;53.128;6.406;2023-04-03T08:14:04;2.38;;;1.35;;
66597;SDS011;57424;53.128;6.406;2023-04-03T08:16:31;5.80;;;1.52;;
66597;SDS011;57424;53.128;6.406;2023-04-03T08:18:56;3.15;;;1.33;;
66597;SDS011;57424;53.128;6.406;2023-04-03T08:21:22;3.30;;;1.38;;
66597;SDS011;57424;53.128;6.406;2023-04-03T08:23:48;2.53;;;1.30;;
66597;SDS011;57424;53.128;6.406;2023-04-03T08:26:16;3.25;;;1.23;;
66597;SDS011;57424;53.128;6.406;2023-04-03T08:28:44;4.13;;;1.20;;
66597;SDS011;57424;53.128;6.406;2023-04-03T08:31:10;4.47;;;1.35;;
66597;SDS011;57424;53.128;6.406;2023-04-03T08:33:38;4.75;;;1.10;;
66597;SDS011;57424;53.128;6.406;2023-04-03T08:36:05;2.63;;;1.20;;
66597;SDS011;57424;53.128;6.406;2023-04-03T08:38:32;2.28;;;1.35;;
66597;SDS011;57424;53.128;6.406;2023-04-03T08:41:06;2.22;;;1.20;;
66597;SDS011;57424;53.128;6.406;2023-04-03T08:43:58;2.70;;;1.45;;
66597;SDS011;57424;53.128;6.406;2023-04-03T08:46:48;2.42;;;1.25;;
66597;SDS011;57424;53.128;6.406;2023-04-03T08:49:31;2.53;;;1.45;;
66597;SDS011;57424;53.128;6.406;2023-04-03T08:51:59;2.15;;;1.20;;
66597;SDS011;57424;53.128;6.406;2023-04-03T08:54:46;2.40;;;1.13;;
66597;SDS011;57424;53.128;6.406;2023-04-03T08:57:32;1.90;;;1.30;;
66597;SDS011;57424;53.128;6.406;2023-04-03T09:00:04;3.22;;;1.05;;
66597;SDS011;57424;53.128;6.406;2023-04-03T09:05:15;2.42;;;1.35;;
66597;SDS011;57424;53.128;6.406;2023-04-03T09:07:47;2.92;;;1.38;;
66597;SDS011;57424;53.128;6.406;2023-04-03T09:10:24;3.40;;;1.40;;
66597;SDS011;57424;53.128;6.406;2023-04-03T09:12:58;5.18;;;1.45;;
66597;SDS011;57424;53.128;6.406;2023-04-03T09:15:29;2.50;;;1.30;;
66597;SDS011;57424;53.128;6.406;2023-04-03T09:18:15;2.53;;;1.45;;
66597;SDS011;57424;53.128;6.406;2023-04-03T09:23:22;3.10;;;1.30;;
66597;SDS011;57424;53.128;6.406;2023-04-03T09:26:14;3.25;;;1.30;;
66597;SDS011;57424;53.128;6.406;2023-04-03T09:28:44;3.13;;;1.23;;
66597;SDS011;57424;53.128;6.406;2023-04-03T09:33:39;3.85;;;1.30;;
66597;SDS011;57424;53.128;6.406;2023-04-03T09:36:05;2.85;;;1.20;;
66597;SDS011;57424;53.128;6.406;2023-04-03T09:38:32;2.42;;;1.10;;
66597;SDS011;57424;53.128;6.406;2023-04-03T09:41:05;3.17;;;1.23;;
66597;SDS011;57424;53.128;6.406;2023-04-03T09:43:38;2.40;;;1.50;;
66597;SDS011;57424;53.128;6.406;2023-04-03T09:48:58;3.10;;;1.30;;
66597;SDS011;57424;53.128;6.406;2023-04-03T09:51:26;2.17;;;1.33;;
66597;SDS011;57424;53.128;6.406;2023-04-03T09:53:53;2.28;;;1.15;;
66597;SDS011;57424;53.128;6.406;2023-04-03T09:56:20;3.13;;;1.25;;
66597;SDS011;57424;53.128;6.406;2023-04-03T10:01:26;2.60;;;1.20;;
66597;SDS011;57424;53.128;6.406;2023-04-03T10:04:02;3.00;;;1.23;;
66597;SDS011;57424;53.128;6.406;2023-04-03T10:06:38;5.65;;;1.40;;
66597;SDS011;57424;53.128;6.406;2023-04-03T10:09:13;2.67;;;1.17;;
66597;SDS011;57424;53.128;6.406;2023-04-03T10:11:56;3.00;;;1.40;;
66597;SDS011;57424;53.128;6.406;2023-04-03T10:14:26;2.47;;;1.27;;
66597;SDS011;57424;53.128;6.406;2023-04-03T10:16:56;4.32;;;1.20;;
66597;SDS011;57424;53.128;6.406;2023-04-03T10:19:32;3.00;;;1.20;;
66597;SDS011;57424;53.128;6.406;2023-04-03T10:24:54;2.35;;;1.10;;
66597;SDS011;57424;53.128;6.406;2023-04-03T10:27:33;2.40;;;1.15;;
66597;SDS011;57424;53.128;6.406;2023-04-03T10:30:29;1.83;;;1.15;;
66597;SDS011;57424;53.128;6.406;2023-04-03T10:35:42;2.45;;;1.02;;
66597;SDS011;57424;53.128;6.406;2023-04-03T10:46:47;1.60;;;1.23;;
66597;SDS011;57424;53.128;6.406;2023-04-03T10:51:45;2.22;;;1.17;;
66597;SDS011;57424;53.128;6.406;2023-04-03T10:54:19;2.33;;;1.27;;
66597;SDS011;57424;53.128;6.406;2023-04-03T10:56:51;4.32;;;1.40;;
66597;SDS011;57424;53.128;6.406;2023-04-03T11:02:13;2.78;;;1.33;;
66597;SDS011;57424;53.128;6.406;2023-04-03T11:04:52;7.18;;;1.45;;
66597;SDS011;57424;53.128;6.406;2023-04-03T11:07:29;2.60;;;1.10;;
66597;SDS011;57424;53.128;6.406;2023-04-03T11:10:03;3.13;;;1.00;;
66597;SDS011;57424;53.128;6.406;2023-04-03T11:12:43;2.95;;;1.42;;
66597;SDS011;57424;53.128;6.406;2023-04-03T11:15:13;3.42;;;1.20;;
66597;SDS011;57424;53.128;6.406;2023-04-03T11:17:43;2.92;;;1.20;;
66597;SDS011;57424;53.128;6.406;2023-04-03T11:22:45;1.73;;;1.30;;
66597;SDS011;57424;53.128;6.406;2023-04-03T11:25:22;1.63;;;1.00;;
66597;SDS011;57424;53.128;6.406;2023-04-03T11:28:01;2.88;;;1.10;;
66597;SDS011;57424;53.128;6.406;2023-04-03T11:30:33;2.45;;;1.27;;
66597;SDS011;57424;53.128;6.406;2023-04-03T11:33:12;3.40;;;1.08;;
66597;SDS011;57424;53.128;6.406;2023-04-03T11:35:44;3.28;;;1.30;;
66597;SDS011;57424;53.128;6.406;2023-04-03T11:41:08;1.35;;;1.00;;
66597;SDS011;57424;53.128;6.406;2023-04-03T11:46:22;2.85;;;1.15;;
66597;SDS011;57424;53.128;6.406;2023-04-03T11:48:48;2.47;;;1.10;;
66597;SDS011;57424;53.128;6.406;2023-04-03T11:53:45;2.53;;;1.10;;
66597;SDS011;57424;53.128;6.406;2023-04-03T11:59:14;1.58;;;0.98;;
66597;SDS011;57424;53.128;6.406;2023-04-03T12:01:42;2.92;;;0.95;;
66597;SDS011;57424;53.128;6.406;2023-04-03T12:04:10;1.07;;;0.83;;
66597;SDS011;57424;53.128;6.406;2023-04-03T12:09:21;1.23;;;0.88;;
66597;SDS011;57424;53.128;6.406;2023-04-03T12:11:51;3.63;;;0.90;;
66597;SDS011;57424;53.128;6.406;2023-04-03T12:14:17;1.48;;;0.75;;
66597;SDS011;57424;53.128;6.406;2023-04-03T12:16:46;0.88;;;0.75;;
66597;SDS011;57424;53.128;6.406;2023-04-03T12:24:28;2.88;;;1.02;;
66597;SDS011;57424;53.128;6.406;2023-04-03T12:32:40;2.10;;;1.10;;
66597;SDS011;57424;53.128;6.406;2023-04-03T12:41:03;2.05;;;1.00;;
66597;SDS011;57424;53.128;6.406;2023-04-03T12:46:26;1.42;;;0.90;;
66597;SDS011;57424;53.128;6.406;2023-04-03T12:49:00;2.60;;;1.10;;
66597;SDS011;57424;53.128;6.406;2023-04-03T12:54:04;1.40;;;0.85;;
66597;SDS011;57424;53.128;6.406;2023-04-03T12:56:42;1.60;;;0.80;;
66597;SDS011;57424;53.128;6.406;2023-04-03T13:01:56;0.93;;;0.80;;
66597;SDS011;57424;53.128;6.406;2023-04-03T13:04:24;2.53;;;1.20;;
66597;SDS011;57424;53.128;6.406;2023-04-03T13:06:51;2.58;;;1.08;;
66597;SDS011;57424;53.128;6.406;2023-04-03T13:11:46;0.75;;;0.70;;
66597;SDS011;57424;53.128;6.406;2023-04-03T13:14:20;1.00;;;0.80;;
66597;SDS011;57424;53.128;6.406;2023-04-03T13:17:00;3.03;;;0.90;;
66597;SDS011;57424;53.128;6.406;2023-04-03T13:19:31;2.47;;;0.80;;
66597;SDS011;57424;53.128;6.406;2023-04-03T13:22:01;2.70;;;1.08;;
66597;SDS011;57424;53.128;6.406;2023-04-03T13:24:33;1.55;;;0.90;;
66597;SDS011;57424;53.128;6.406;2023-04-03T13:27:03;2.20;;;0.80;;
66597;SDS011;57424;53.128;6.406;2023-04-03T13:29:32;1.67;;;1.02;;
66597;SDS011;57424;53.128;6.406;2023-04-03T13:32:02;1.63;;;1.00;;
66597;SDS011;57424;53.128;6.406;2023-04-03T13:34:37;1.30;;;0.70;;
66597;SDS011;57424;53.128;6.406;2023-04-03T13:37:06;1.70;;;0.70;;
66597;SDS011;57424;53.128;6.406;2023-04-03T13:39:36;2.07;;;0.80;;
66597;SDS011;57424;53.128;6.406;2023-04-03T13:42:20;3.20;;;0.95;;
66597;SDS011;57424;53.128;6.406;2023-04-03T13:44:49;1.63;;;0.88;;
66597;SDS011;57424;53.128;6.406;2023-04-03T13:47:38;1.92;;;0.90;;
66597;SDS011;57424;53.128;6.406;2023-04-03T13:52:44;2.90;;;1.10;;
66597;SDS011;57424;53.128;6.406;2023-04-03T13:57:55;2.63;;;1.25;;
66597;SDS011;57424;53.128;6.406;2023-04-03T14:00:27;3.13;;;0.95;;
66597;SDS011;57424;53.128;6.406;2023-04-03T14:02:56;0.98;;;0.80;;
66597;SDS011;57424;53.128;6.406;2023-04-03T14:05:22;2.35;;;0.80;;
66597;SDS011;57424;53.128;6.406;2023-04-03T14:07:50;4.53;;;1.00;;
66597;SDS011;57424;53.128;6.406;2023-04-03T14:10:16;2.65;;;0.90;;
66597;SDS011;57424;53.128;6.406;2023-04-03T14:12:42;1.60;;;1.00;;
66597;SDS011;57424;53.128;6.406;2023-04-03T14:15:27;1.00;;;0.80;;
66597;SDS011;57424;53.128;6.406;2023-04-03T14:17:55;1.75;;;0.80;;
66597;SDS011;57424;53.128;6.406;2023-04-03T14:20:22;1.33;;;0.77;;
66597;SDS011;57424;53.128;6.406;2023-04-03T14:22:50;2.97;;;1.20;;
66597;SDS011;57424;53.128;6.406;2023-04-03T14:25:16;1.52;;;1.10;;
66597;SDS011;57424;53.128;6.406;2023-04-03T14:27:46;2.22;;;1.00;;
66597;SDS011;57424;53.128;6.406;2023-04-03T14:30:25;1.30;;;0.80;;
66597;SDS011;57424;53.128;6.406;2023-04-03T14:32:53;1.33;;;0.70;;
66597;SDS011;57424;53.128;6.406;2023-04-03T14:35:19;1.95;;;0.80;;
66597;SDS011;57424;53.128;6.406;2023-04-03T14:37:45;1.40;;;0.80;;
66597;SDS011;57424;53.128;6.406;2023-04-03T14:40:15;1.60;;;0.60;;
66597;SDS011;57424;53.128;6.406;2023-04-03T14:42:43;1.40;;;0.77;;
66597;SDS011;57424;53.128;6.406;2023-04-03T14:45:10;1.98;;;0.82;;
66597;SDS011;57424;53.128;6.406;2023-04-03T14:49:27;1.35;;;0.70;;
66597;SDS011;57424;53.128;6.406;2023-04-03T14:51:54;2.45;;;0.88;;
66597;SDS011;57424;53.128;6.406;2023-04-03T14:54:21;1.73;;;0.95;;
66597;SDS011;57424;53.128;6.406;2023-04-03T14:56:52;1.73;;;0.95;;
66597;SDS011;57424;53.128;6.406;2023-04-03T14:59:19;3.97;;;0.90;;
66597;SDS011;57424;53.128;6.406;2023-04-03T15:01:46;1.83;;;0.80;;
66597;SDS011;57424;53.128;6.406;2023-04-03T15:04:16;1.10;;;0.80;;
66597;SDS011;57424;53.128;6.406;2023-04-03T15:06:46;1.92;;;0.98;;
66597;SDS011;57424;53.128;6.406;2023-04-03T15:09:25;3.65;;;1.27;;
66597;SDS011;57424;53.128;6.406;2023-04-03T15:11:53;0.98;;;0.80;;
66597;SDS011;57424;53.128;6.406;2023-04-03T15:14:19;3.15;;;0.90;;
66597;SDS011;57424;53.128;6.406;2023-04-03T15:16:45;1.90;;;0.90;;
66597;SDS011;57424;53.128;6.406;2023-04-03T15:19:11;1.75;;;1.10;;
66597;SDS011;57424;53.128;6.406;2023-04-03T15:21:37;1.38;;;0.80;;
66597;SDS011;57424;53.128;6.406;2023-04-03T15:24:03;0.65;;;0.60;;
66597;SDS011;57424;53.128;6.406;2023-04-03T15:26:29;1.65;;;0.82;;
66597;SDS011;57424;53.128;6.406;2023-04-03T15:28:56;3.85;;;0.80;;
66597;SDS011;57424;53.128;6.406;2023-04-03T15:31:21;2.15;;;0.90;;
66597;SDS011;57424;53.128;6.406;2023-04-03T15:33:47;1.67;;;0.73;;
66597;SDS011;57424;53.128;6.406;2023-04-03T15:36:13;2.65;;;0.85;;
66597;SDS011;57424;53.128;6.406;2023-04-03T15:38:38;0.82;;;0.70;;
66597;SDS011;57424;53.128;6.406;2023-04-03T15:41:04;1.15;;;0.60;;
66597;SDS011;57424;53.128;6.406;2023-04-03T15:43:30;1.85;;;0.65;;
66597;SDS011;57424;53.128;6.406;2023-04-03T15:45:56;0.95;;;0.70;;
66597;SDS011;57424;53.128;6.406;2023-04-03T15:48:23;1.92;;;0.90;;
66597;SDS011;57424;53.128;6.406;2023-04-03T15:50:49;2.47;;;0.80;;
66597;SDS011;57424;53.128;6.406;2023-04-03T15:53:15;2.17;;;1.00;;
66597;SDS011;57424;53.128;6.406;2023-04-03T15:55:40;1.17;;;0.65;;
66597;SDS011;57424;53.128;6.406;2023-04-03T15:58:06;1.10;;;0.70;;
66597;SDS011;57424;53.128;6.406;2023-04-03T16:00:32;2.28;;;0.85;;
66597;SDS011;57424;53.128;6.406;2023-04-03T16:03:19;1.58;;;1.02;;
66597;SDS011;57424;53.128;6.406;2023-04-03T16:05:45;1.17;;;0.70;;
66597;SDS011;57424;53.128;6.406;2023-04-03T16:08:11;2.38;;;0.80;;
66597;SDS011;57424;53.128;6.406;2023-04-03T16:10:38;2.22;;;1.65;;
66597;SDS011;57424;53.128;6.406;2023-04-03T16:13:05;8.48;;;6.80;;
66597;SDS011;57424;53.128;6.406;2023-04-03T16:15:31;26.10;;;18.05;;
66597;SDS011;57424;53.128;6.406;2023-04-03T16:17:58;35.83;;;24.50;;
66597;SDS011;57424;53.128;6.406;2023-04-03T16:20:24;63.45;;;42.33;;
66597;SDS011;57424;53.128;6.406;2023-04-03T16:22:50;57.38;;;41.65;;
66597;SDS011;57424;53.128;6.406;2023-04-03T16:25:16;52.67;;;38.40;;